Shallmar, Maryland
Current Conditions -  °F | °C
As of 9:05 AM on Monday 24 Nov 2014 (Local Time) from K2G4 Reporting Station
Clear Clear  
Wind Chill: 59°   Ceiling: Unl
Heat Index: 59°   Visibility: 10mi
Dew Point: 45°   Wind: 15mph
Humidity: 59%   Direction: 200°SSW
Pressure: 29.58"   Gusts: 25mph
Location:  39.4013°N, 79.2213°W
Report Text: K2G4 241405Z AUTO 20013G22KT 10SM CLR 15/07 A2958 RMK AO1
Loading
Personal Weather Stations






























Interactive Weather Map New forecast layout! Learn more

10-Day Weather Forecast

Advertisements
Track Severe Weather on mobile